sensor_id;sensor_type;location;lat;lon;timestamp;temperature;humidity
10702;DHT22;5402;50.004;8.246;2023-04-22T00:01:20;10.00;99.90
10702;DHT22;5402;50.004;8.246;2023-04-22T00:03:48;10.00;99.90
10702;DHT22;5402;50.004;8.246;2023-04-22T00:06:17;10.10;99.90
10702;DHT22;5402;50.004;8.246;2023-04-22T00:08:44;10.00;99.90
10702;DHT22;5402;50.004;8.246;2023-04-22T00:11:12;10.00;99.90
10702;DHT22;5402;50.004;8.246;2023-04-22T00:13:39;10.00;99.90
10702;DHT22;5402;50.004;8.246;2023-04-22T00:16:06;10.00;99.90
10702;DHT22;5402;50.004;8.246;2023-04-22T00:18:33;10.00;99.90
10702;DHT22;5402;50.004;8.246;2023-04-22T00:21:00;10.00;99.90
10702;DHT22;5402;50.004;8.246;2023-04-22T00:23:28;10.00;99.90
10702;DHT22;5402;50.004;8.246;2023-04-22T00:25:56;10.20;99.90
10702;DHT22;5402;50.004;8.246;2023-04-22T00:28:22;10.00;99.90
10702;DHT22;5402;50.004;8.246;2023-04-22T00:30:49;10.00;99.90
10702;DHT22;5402;50.004;8.246;2023-04-22T00:33:16;10.10;99.90
10702;DHT22;5402;50.004;8.246;2023-04-22T00:35:43;10.10;99.90
10702;DHT22;5402;50.004;8.246;2023-04-22T00:38:13;10.10;99.90
10702;DHT22;5402;50.004;8.246;2023-04-22T00:40:41;10.00;99.90
10702;DHT22;5402;50.004;8.246;2023-04-22T00:43:08;10.10;99.90
10702;DHT22;5402;50.004;8.246;2023-04-22T00:45:36;10.10;99.90
10702;DHT22;5402;50.004;8.246;2023-04-22T00:48:03;10.00;99.90
10702;DHT22;5402;50.004;8.246;2023-04-22T00:50:30;10.10;99.90
10702;DHT22;5402;50.004;8.246;2023-04-22T00:52:57;10.00;99.90
10702;DHT22;5402;50.004;8.246;2023-04-22T00:55:24;10.00;99.90
10702;DHT22;5402;50.004;8.246;2023-04-22T00:57:54;10.40;99.90
10702;DHT22;5402;50.004;8.246;2023-04-22T01:00:23;10.10;99.90
10702;DHT22;5402;50.004;8.246;2023-04-22T01:02:51;9.90;99.90
10702;DHT22;5402;50.004;8.246;2023-04-22T01:05:19;9.80;99.90
10702;DHT22;5402;50.004;8.246;2023-04-22T01:07:46;9.80;99.90
10702;DHT22;5402;50.004;8.246;2023-04-22T01:10:13;9.80;99.90
10702;DHT22;5402;50.004;8.246;2023-04-22T01:12:39;9.80;99.90
10702;DHT22;5402;50.004;8.246;2023-04-22T01:15:09;9.90;99.90
10702;DHT22;5402;50.004;8.246;2023-04-22T01:17:36;9.80;99.90
10702;DHT22;5402;50.004;8.246;2023-04-22T01:20:04;10.00;99.90
10702;DHT22;5402;50.004;8.246;2023-04-22T01:22:35;9.80;99.90
10702;DHT22;5402;50.004;8.246;2023-04-22T01:25:06;9.80;99.90
10702;DHT22;5402;50.004;8.246;2023-04-22T01:27:34;9.80;99.90
10702;DHT22;5402;50.004;8.246;2023-04-22T01:30:03;9.80;99.90
10702;DHT22;5402;50.004;8.246;2023-04-22T01:32:29;9.80;99.90
10702;DHT22;5402;50.004;8.246;2023-04-22T01:34:57;9.80;99.90
10702;DHT22;5402;50.004;8.246;2023-04-22T01:37:24;9.80;99.90
10702;DHT22;5402;50.004;8.246;2023-04-22T01:39:51;9.70;99.90
10702;DHT22;5402;50.004;8.246;2023-04-22T01:42:20;9.80;99.90
10702;DHT22;5402;50.004;8.246;2023-04-22T01:44:47;9.80;99.90
10702;DHT22;5402;50.004;8.246;2023-04-22T01:47:14;9.80;99.90
10702;DHT22;5402;50.004;8.246;2023-04-22T01:49:44;9.80;99.90
10702;DHT22;5402;50.004;8.246;2023-04-22T01:52:11;9.80;99.90
10702;DHT22;5402;50.004;8.246;2023-04-22T01:54:38;9.80;99.90
10702;DHT22;5402;50.004;8.246;2023-04-22T01:57:09;9.90;99.90
10702;DHT22;5402;50.004;8.246;2023-04-22T01:59:39;9.80;99.90
10702;DHT22;5402;50.004;8.246;2023-04-22T02:02:06;9.90;99.90
10702;DHT22;5402;50.004;8.246;2023-04-22T02:04:33;9.90;99.90
10702;DHT22;5402;50.004;8.246;2023-04-22T02:07:00;9.90;99.90
10702;DHT22;5402;50.004;8.246;2023-04-22T02:09:27;9.90;99.90
10702;DHT22;5402;50.004;8.246;2023-04-22T02:11:53;9.90;99.90
10702;DHT22;5402;50.004;8.246;2023-04-22T02:14:24;9.90;99.90
10702;DHT22;5402;50.004;8.246;2023-04-22T02:16:52;10.00;99.90
10702;DHT22;5402;50.004;8.246;2023-04-22T02:19:18;9.90;99.90
10702;DHT22;5402;50.004;8.246;2023-04-22T02:21:45;9.90;99.90
10702;DHT22;5402;50.004;8.246;2023-04-22T02:24:14;9.90;99.90
10702;DHT22;5402;50.004;8.246;2023-04-22T02:26:41;9.90;99.90
10702;DHT22;5402;50.004;8.246;2023-04-22T02:29:08;9.90;99.90
10702;DHT22;5402;50.004;8.246;2023-04-22T02:31:35;9.90;99.90
10702;DHT22;5402;50.004;8.246;2023-04-22T02:34:07;9.80;99.90
10702;DHT22;5402;50.004;8.246;2023-04-22T02:36:36;9.70;99.90
10702;DHT22;5402;50.004;8.246;2023-04-22T02:39:03;9.70;99.90
10702;DHT22;5402;50.004;8.246;2023-04-22T02:41:30;9.70;99.90
10702;DHT22;5402;50.004;8.246;2023-04-22T02:43:59;9.70;99.90
10702;DHT22;5402;50.004;8.246;2023-04-22T02:46:28;9.80;99.90
10702;DHT22;5402;50.004;8.246;2023-04-22T02:48:55;9.70;99.90
10702;DHT22;5402;50.004;8.246;2023-04-22T02:51:23;9.70;99.90
10702;DHT22;5402;50.004;8.246;2023-04-22T02:53:51;9.60;99.90
10702;DHT22;5402;50.004;8.246;2023-04-22T02:56:19;9.60;99.90
10702;DHT22;5402;50.004;8.246;2023-04-22T02:58:46;9.60;99.90
10702;DHT22;5402;50.004;8.246;2023-04-22T03:01:12;9.60;99.90
10702;DHT22;5402;50.004;8.246;2023-04-22T03:03:41;9.50;99.90
10702;DHT22;5402;50.004;8.246;2023-04-22T03:06:07;9.50;99.90
10702;DHT22;5402;50.004;8.246;2023-04-22T03:08:35;9.50;99.90
10702;DHT22;5402;50.004;8.246;2023-04-22T03:11:03;9.60;99.90
10702;DHT22;5402;50.004;8.246;2023-04-22T03:13:30;9.60;99.90
10702;DHT22;5402;50.004;8.246;2023-04-22T03:15:57;9.70;99.90
10702;DHT22;5402;50.004;8.246;2023-04-22T03:18:26;9.70;99.90
10702;DHT22;5402;50.004;8.246;2023-04-22T03:20:53;9.60;99.90
10702;DHT22;5402;50.004;8.246;2023-04-22T03:23:20;9.60;99.90
10702;DHT22;5402;50.004;8.246;2023-04-22T03:25:48;9.70;99.90
10702;DHT22;5402;50.004;8.246;2023-04-22T03:28:15;9.60;99.90
10702;DHT22;5402;50.004;8.246;2023-04-22T03:30:42;9.60;99.90
10702;DHT22;5402;50.004;8.246;2023-04-22T03:33:10;9.50;99.90
10702;DHT22;5402;50.004;8.246;2023-04-22T03:35:37;9.60;99.90
10702;DHT22;5402;50.004;8.246;2023-04-22T03:38:03;9.60;99.90
10702;DHT22;5402;50.004;8.246;2023-04-22T03:40:30;9.50;99.90
10702;DHT22;5402;50.004;8.246;2023-04-22T03:42:59;9.50;99.90
10702;DHT22;5402;50.004;8.246;2023-04-22T03:45:25;9.50;99.90
10702;DHT22;5402;50.004;8.246;2023-04-22T03:47:52;9.60;99.90
10702;DHT22;5402;50.004;8.246;2023-04-22T03:50:19;9.50;99.90
10702;DHT22;5402;50.004;8.246;2023-04-22T03:52:46;9.50;99.90
10702;DHT22;5402;50.004;8.246;2023-04-22T03:55:12;9.40;99.90
10702;DHT22;5402;50.004;8.246;2023-04-22T03:57:39;9.40;99.90
10702;DHT22;5402;50.004;8.246;2023-04-22T04:00:08;9.40;99.90
10702;DHT22;5402;50.004;8.246;2023-04-22T04:02:35;9.40;99.90
10702;DHT22;5402;50.004;8.246;2023-04-22T04:05:04;9.40;99.90
10702;DHT22;5402;50.004;8.246;2023-04-22T04:07:30;9.40;99.90
10702;DHT22;5402;50.004;8.246;2023-04-22T04:09:57;9.40;99.90
10702;DHT22;5402;50.004;8.246;2023-04-22T04:12:24;9.40;99.90
10702;DHT22;5402;50.004;8.246;2023-04-22T04:14:50;9.40;99.90
10702;DHT22;5402;50.004;8.246;2023-04-22T04:17:20;9.40;99.90
10702;DHT22;5402;50.004;8.246;2023-04-22T04:19:50;9.40;99.90
10702;DHT22;5402;50.004;8.246;2023-04-22T04:22:17;9.50;99.90
10702;DHT22;5402;50.004;8.246;2023-04-22T04:24:44;9.40;99.90
10702;DHT22;5402;50.004;8.246;2023-04-22T04:27:11;9.60;99.90
10702;DHT22;5402;50.004;8.246;2023-04-22T04:29:38;9.40;99.90
10702;DHT22;5402;50.004;8.246;2023-04-22T04:32:06;9.40;99.90
10702;DHT22;5402;50.004;8.246;2023-04-22T04:34:34;9.40;99.90
10702;DHT22;5402;50.004;8.246;2023-04-22T04:37:03;9.30;99.90
10702;DHT22;5402;50.004;8.246;2023-04-22T04:39:30;9.30;99.90
10702;DHT22;5402;50.004;8.246;2023-04-22T04:41:57;9.30;99.90
10702;DHT22;5402;50.004;8.246;2023-04-22T04:44:25;9.30;99.90
10702;DHT22;5402;50.004;8.246;2023-04-22T04:46:51;9.20;99.90
10702;DHT22;5402;50.004;8.246;2023-04-22T04:49:19;9.50;99.90
10702;DHT22;5402;50.004;8.246;2023-04-22T04:51:47;9.30;99.90
10702;DHT22;5402;50.004;8.246;2023-04-22T04:54:14;9.30;99.90
10702;DHT22;5402;50.004;8.246;2023-04-22T04:56:43;9.30;99.90
10702;DHT22;5402;50.004;8.246;2023-04-22T04:59:09;9.30;99.90
10702;DHT22;5402;50.004;8.246;2023-04-22T05:01:37;9.30;99.90
10702;DHT22;5402;50.004;8.246;2023-04-22T05:04:03;9.40;99.90
10702;DHT22;5402;50.004;8.246;2023-04-22T05:06:30;9.20;99.90
10702;DHT22;5402;50.004;8.246;2023-04-22T05:08:59;9.40;99.90
10702;DHT22;5402;50.004;8.246;2023-04-22T05:11:26;9.40;99.90
10702;DHT22;5402;50.004;8.246;2023-04-22T05:13:53;9.50;99.90
10702;DHT22;5402;50.004;8.246;2023-04-22T05:16:19;9.20;99.90
10702;DHT22;5402;50.004;8.246;2023-04-22T05:18:47;9.30;99.90
10702;DHT22;5402;50.004;8.246;2023-04-22T05:21:14;9.20;99.90
10702;DHT22;5402;50.004;8.246;2023-04-22T05:23:41;9.20;99.90
10702;DHT22;5402;50.004;8.246;2023-04-22T05:26:09;9.20;99.90
10702;DHT22;5402;50.004;8.246;2023-04-22T05:28:36;9.30;99.90
10702;DHT22;5402;50.004;8.246;2023-04-22T05:31:02;9.30;99.90
10702;DHT22;5402;50.004;8.246;2023-04-22T05:33:29;9.40;99.90
10702;DHT22;5402;50.004;8.246;2023-04-22T05:35:59;9.50;99.90
10702;DHT22;5402;50.004;8.246;2023-04-22T05:38:27;9.60;99.90
10702;DHT22;5402;50.004;8.246;2023-04-22T05:40:54;9.60;99.90
10702;DHT22;5402;50.004;8.246;2023-04-22T05:43:22;9.70;99.90
10702;DHT22;5402;50.004;8.246;2023-04-22T05:45:49;9.90;99.90
10702;DHT22;5402;50.004;8.246;2023-04-22T05:48:17;9.80;99.90
10702;DHT22;5402;50.004;8.246;2023-04-22T05:50:44;9.80;99.90
10702;DHT22;5402;50.004;8.246;2023-04-22T05:53:11;9.90;99.90
10702;DHT22;5402;50.004;8.246;2023-04-22T05:55:37;10.10;99.90
10702;DHT22;5402;50.004;8.246;2023-04-22T05:58:06;10.30;99.90
10702;DHT22;5402;50.004;8.246;2023-04-22T06:00:34;10.20;99.90
10702;DHT22;5402;50.004;8.246;2023-04-22T06:03:01;10.50;99.90
10702;DHT22;5402;50.004;8.246;2023-04-22T06:05:28;10.50;99.90
10702;DHT22;5402;50.004;8.246;2023-04-22T06:07:54;10.60;99.90
10702;DHT22;5402;50.004;8.246;2023-04-22T06:10:22;10.70;99.90
10702;DHT22;5402;50.004;8.246;2023-04-22T06:12:49;10.90;99.90
10702;DHT22;5402;50.004;8.246;2023-04-22T06:15:15;11.10;99.90
10702;DHT22;5402;50.004;8.246;2023-04-22T06:17:44;11.10;99.90
10702;DHT22;5402;50.004;8.246;2023-04-22T06:20:11;11.20;99.90
10702;DHT22;5402;50.004;8.246;2023-04-22T06:22:38;11.20;99.90
10702;DHT22;5402;50.004;8.246;2023-04-22T06:25:07;11.30;99.90
10702;DHT22;5402;50.004;8.246;2023-04-22T06:27:35;11.30;99.90
10702;DHT22;5402;50.004;8.246;2023-04-22T06:30:02;11.40;99.90
10702;DHT22;5402;50.004;8.246;2023-04-22T06:32:29;11.30;99.90
10702;DHT22;5402;50.004;8.246;2023-04-22T06:34:57;11.30;99.90
10702;DHT22;5402;50.004;8.246;2023-04-22T06:37:24;11.40;99.90
10702;DHT22;5402;50.004;8.246;2023-04-22T06:39:51;11.50;99.90
10702;DHT22;5402;50.004;8.246;2023-04-22T06:42:18;11.60;99.90
10702;DHT22;5402;50.004;8.246;2023-04-22T06:44:44;11.70;99.90
10702;DHT22;5402;50.004;8.246;2023-04-22T06:47:11;11.90;99.90
10702;DHT22;5402;50.004;8.246;2023-04-22T06:49:38;11.80;99.90
10702;DHT22;5402;50.004;8.246;2023-04-22T06:52:07;11.90;99.90
10702;DHT22;5402;50.004;8.246;2023-04-22T06:54:34;12.10;99.90
10702;DHT22;5402;50.004;8.246;2023-04-22T06:57:02;12.10;99.90
10702;DHT22;5402;50.004;8.246;2023-04-22T06:59:28;12.20;99.90
10702;DHT22;5402;50.004;8.246;2023-04-22T07:01:55;12.40;99.90
10702;DHT22;5402;50.004;8.246;2023-04-22T07:04:22;12.60;99.90
10702;DHT22;5402;50.004;8.246;2023-04-22T07:06:48;12.70;99.90
10702;DHT22;5402;50.004;8.246;2023-04-22T07:09:17;12.80;99.90
10702;DHT22;5402;50.004;8.246;2023-04-22T07:11:43;13.00;99.90
10702;DHT22;5402;50.004;8.246;2023-04-22T07:14:10;13.30;99.90
10702;DHT22;5402;50.004;8.246;2023-04-22T07:16:38;13.20;99.90
10702;DHT22;5402;50.004;8.246;2023-04-22T07:19:04;13.40;99.90
10702;DHT22;5402;50.004;8.246;2023-04-22T07:21:31;13.50;99.90
10702;DHT22;5402;50.004;8.246;2023-04-22T07:23:58;13.60;99.90
10702;DHT22;5402;50.004;8.246;2023-04-22T07:26:26;13.70;99.90
10702;DHT22;5402;50.004;8.246;2023-04-22T07:28:53;13.80;99.90
10702;DHT22;5402;50.004;8.246;2023-04-22T07:31:20;13.90;99.90
10702;DHT22;5402;50.004;8.246;2023-04-22T07:33:46;14.00;99.90
10702;DHT22;5402;50.004;8.246;2023-04-22T07:36:13;14.10;99.90
10702;DHT22;5402;50.004;8.246;2023-04-22T07:38:40;14.20;99.90
10702;DHT22;5402;50.004;8.246;2023-04-22T07:41:06;14.30;99.90
10702;DHT22;5402;50.004;8.246;2023-04-22T07:43:34;14.30;99.90
10702;DHT22;5402;50.004;8.246;2023-04-22T07:46:01;14.30;99.90
10702;DHT22;5402;50.004;8.246;2023-04-22T07:48:28;14.30;99.90
10702;DHT22;5402;50.004;8.246;2023-04-22T07:50:55;14.20;99.90
10702;DHT22;5402;50.004;8.246;2023-04-22T07:53:22;14.30;99.90
10702;DHT22;5402;50.004;8.246;2023-04-22T07:55:48;14.40;99.90
10702;DHT22;5402;50.004;8.246;2023-04-22T07:58:15;14.70;99.90
10702;DHT22;5402;50.004;8.246;2023-04-22T08:00:43;14.80;99.90
10702;DHT22;5402;50.004;8.246;2023-04-22T08:03:10;14.90;99.90
10702;DHT22;5402;50.004;8.246;2023-04-22T08:05:36;15.00;99.90
10702;DHT22;5402;50.004;8.246;2023-04-22T08:08:04;15.10;99.90
10702;DHT22;5402;50.004;8.246;2023-04-22T08:10:30;15.30;99.90
10702;DHT22;5402;50.004;8.246;2023-04-22T08:12:57;15.50;99.90
10702;DHT22;5402;50.004;8.246;2023-04-22T08:15:24;15.60;99.90
10702;DHT22;5402;50.004;8.246;2023-04-22T08:17:54;15.80;99.90
10702;DHT22;5402;50.004;8.246;2023-04-22T08:20:21;16.00;99.90
10702;DHT22;5402;50.004;8.246;2023-04-22T08:22:48;16.00;99.90
10702;DHT22;5402;50.004;8.246;2023-04-22T08:25:21;16.30;99.90
10702;DHT22;5402;50.004;8.246;2023-04-22T08:27:48;16.40;99.90
10702;DHT22;5402;50.004;8.246;2023-04-22T08:30:15;16.70;99.90
10702;DHT22;5402;50.004;8.246;2023-04-22T08:32:42;16.70;99.90
10702;DHT22;5402;50.004;8.246;2023-04-22T08:35:11;16.80;99.90
10702;DHT22;5402;50.004;8.246;2023-04-22T08:37:39;17.00;99.90
10702;DHT22;5402;50.004;8.246;2023-04-22T08:40:07;17.30;99.90
10702;DHT22;5402;50.004;8.246;2023-04-22T08:42:34;17.60;99.90
10702;DHT22;5402;50.004;8.246;2023-04-22T08:45:01;17.80;99.90
10702;DHT22;5402;50.004;8.246;2023-04-22T08:47:28;17.60;99.90
10702;DHT22;5402;50.004;8.246;2023-04-22T08:49:58;17.70;99.90
10702;DHT22;5402;50.004;8.246;2023-04-22T08:52:29;17.80;99.90
10702;DHT22;5402;50.004;8.246;2023-04-22T08:54:56;18.20;99.90
10702;DHT22;5402;50.004;8.246;2023-04-22T08:57:23;18.30;99.90
10702;DHT22;5402;50.004;8.246;2023-04-22T08:59:50;18.40;99.90
10702;DHT22;5402;50.004;8.246;2023-04-22T09:02:19;18.50;99.90
10702;DHT22;5402;50.004;8.246;2023-04-22T09:04:48;18.30;99.90
10702;DHT22;5402;50.004;8.246;2023-04-22T09:07:17;18.20;99.90
10702;DHT22;5402;50.004;8.246;2023-04-22T09:09:46;18.20;99.90
10702;DHT22;5402;50.004;8.246;2023-04-22T09:12:13;18.00;99.90
10702;DHT22;5402;50.004;8.246;2023-04-22T09:14:42;18.10;99.90
10702;DHT22;5402;50.004;8.246;2023-04-22T09:17:09;18.00;99.90
10702;DHT22;5402;50.004;8.246;2023-04-22T09:19:36;18.20;99.90
10702;DHT22;5402;50.004;8.246;2023-04-22T09:22:03;18.30;99.90
10702;DHT22;5402;50.004;8.246;2023-04-22T09:24:30;18.60;99.90
10702;DHT22;5402;50.004;8.246;2023-04-22T09:27:00;18.90;99.90
10702;DHT22;5402;50.004;8.246;2023-04-22T09:29:29;18.60;99.90
10702;DHT22;5402;50.004;8.246;2023-04-22T09:31:56;19.00;99.90
10702;DHT22;5402;50.004;8.246;2023-04-22T09:34:23;19.40;99.90
10702;DHT22;5402;50.004;8.246;2023-04-22T09:36:50;19.60;99.90
10702;DHT22;5402;50.004;8.246;2023-04-22T09:39:17;19.70;99.90
10702;DHT22;5402;50.004;8.246;2023-04-22T09:41:44;19.90;99.90
10702;DHT22;5402;50.004;8.246;2023-04-22T09:44:14;20.10;99.90
10702;DHT22;5402;50.004;8.246;2023-04-22T09:46:41;20.10;99.90
10702;DHT22;5402;50.004;8.246;2023-04-22T09:49:09;20.30;99.90
10702;DHT22;5402;50.004;8.246;2023-04-22T09:51:40;20.20;99.90
10702;DHT22;5402;50.004;8.246;2023-04-22T09:54:09;20.10;99.90
10702;DHT22;5402;50.004;8.246;2023-04-22T09:56:45;19.90;99.90
10702;DHT22;5402;50.004;8.246;2023-04-22T09:59:18;19.90;99.90
10702;DHT22;5402;50.004;8.246;2023-04-22T10:01:47;19.80;99.90
10702;DHT22;5402;50.004;8.246;2023-04-22T10:04:14;19.70;99.90
10702;DHT22;5402;50.004;8.246;2023-04-22T10:06:46;19.70;99.90
10702;DHT22;5402;50.004;8.246;2023-04-22T10:09:13;19.80;99.90
10702;DHT22;5402;50.004;8.246;2023-04-22T10:11:40;19.80;99.90
10702;DHT22;5402;50.004;8.246;2023-04-22T10:14:07;19.70;99.90
10702;DHT22;5402;50.004;8.246;2023-04-22T10:16:37;19.70;99.90
10702;DHT22;5402;50.004;8.246;2023-04-22T10:19:06;19.70;99.90
10702;DHT22;5402;50.004;8.246;2023-04-22T10:21:34;19.30;99.90
10702;DHT22;5402;50.004;8.246;2023-04-22T10:24:03;19.40;99.90
10702;DHT22;5402;50.004;8.246;2023-04-22T10:26:40;19.90;99.90
10702;DHT22;5402;50.004;8.246;2023-04-22T10:29:08;20.20;99.90
10702;DHT22;5402;50.004;8.246;2023-04-22T10:31:39;20.30;99.90
10702;DHT22;5402;50.004;8.246;2023-04-22T10:34:10;20.10;99.90
10702;DHT22;5402;50.004;8.246;2023-04-22T10:36:54;20.20;99.90
10702;DHT22;5402;50.004;8.246;2023-04-22T10:39:21;19.90;99.90
10702;DHT22;5402;50.004;8.246;2023-04-22T10:41:53;20.00;99.90
10702;DHT22;5402;50.004;8.246;2023-04-22T10:44:21;20.20;99.90
10702;DHT22;5402;50.004;8.246;2023-04-22T10:47:01;20.30;99.90
10702;DHT22;5402;50.004;8.246;2023-04-22T10:49:29;20.50;99.90
10702;DHT22;5402;50.004;8.246;2023-04-22T10:51:58;20.60;99.90
10702;DHT22;5402;50.004;8.246;2023-04-22T10:54:59;20.50;99.90
10702;DHT22;5402;50.004;8.246;2023-04-22T10:57:35;20.60;99.90
10702;DHT22;5402;50.004;8.246;2023-04-22T11:00:23;20.70;99.90
10702;DHT22;5402;50.004;8.246;2023-04-22T11:02:53;20.80;99.90
10702;DHT22;5402;50.004;8.246;2023-04-22T11:05:22;20.80;99.90
10702;DHT22;5402;50.004;8.246;2023-04-22T11:07:52;20.70;99.90
10702;DHT22;5402;50.004;8.246;2023-04-22T11:10:34;20.70;99.90
10702;DHT22;5402;50.004;8.246;2023-04-22T11:13:02;20.80;99.90
10702;DHT22;5402;50.004;8.246;2023-04-22T11:15:33;21.00;99.90
10702;DHT22;5402;50.004;8.246;2023-04-22T11:18:01;21.30;99.90
10702;DHT22;5402;50.004;8.246;2023-04-22T11:20:28;21.50;99.90
10702;DHT22;5402;50.004;8.246;2023-04-22T11:22:56;21.60;99.90
10702;DHT22;5402;50.004;8.246;2023-04-22T11:25:24;21.70;99.90
10702;DHT22;5402;50.004;8.246;2023-04-22T11:27:52;22.00;99.90
10702;DHT22;5402;50.004;8.246;2023-04-22T11:30:20;22.20;99.90
10702;DHT22;5402;50.004;8.246;2023-04-22T11:32:48;22.40;99.90
10702;DHT22;5402;50.004;8.246;2023-04-22T11:35:18;22.50;99.90
10702;DHT22;5402;50.004;8.246;2023-04-22T11:37:47;22.60;99.90
10702;DHT22;5402;50.004;8.246;2023-04-22T11:40:16;22.70;99.90
10702;DHT22;5402;50.004;8.246;2023-04-22T11:42:43;22.30;99.90
10702;DHT22;5402;50.004;8.246;2023-04-22T11:45:11;22.20;99.90
10702;DHT22;5402;50.004;8.246;2023-04-22T11:47:39;22.60;99.90
10702;DHT22;5402;50.004;8.246;2023-04-22T11:50:07;22.70;99.90
10702;DHT22;5402;50.004;8.246;2023-04-22T11:52:45;22.60;99.90
10702;DHT22;5402;50.004;8.246;2023-04-22T11:55:12;22.70;99.90
10702;DHT22;5402;50.004;8.246;2023-04-22T11:57:40;22.70;99.90
10702;DHT22;5402;50.004;8.246;2023-04-22T12:00:11;22.90;99.90
10702;DHT22;5402;50.004;8.246;2023-04-22T12:02:39;23.10;99.90
10702;DHT22;5402;50.004;8.246;2023-04-22T12:05:09;23.20;99.90
10702;DHT22;5402;50.004;8.246;2023-04-22T12:07:37;23.10;99.90
10702;DHT22;5402;50.004;8.246;2023-04-22T12:10:06;22.80;99.90
10702;DHT22;5402;50.004;8.246;2023-04-22T12:12:33;22.50;99.90
10702;DHT22;5402;50.004;8.246;2023-04-22T12:15:09;22.40;99.90
10702;DHT22;5402;50.004;8.246;2023-04-22T12:17:36;22.30;99.90
10702;DHT22;5402;50.004;8.246;2023-04-22T12:20:04;22.40;99.90
10702;DHT22;5402;50.004;8.246;2023-04-22T12:22:32;22.50;99.90
10702;DHT22;5402;50.004;8.246;2023-04-22T12:24:59;22.20;99.90
10702;DHT22;5402;50.004;8.246;2023-04-22T12:27:28;22.00;99.90
10702;DHT22;5402;50.004;8.246;2023-04-22T12:29:56;21.80;99.90
10702;DHT22;5402;50.004;8.246;2023-04-22T12:32:25;21.90;99.90
10702;DHT22;5402;50.004;8.246;2023-04-22T12:34:51;21.70;99.90
10702;DHT22;5402;50.004;8.246;2023-04-22T12:37:18;21.70;99.90
10702;DHT22;5402;50.004;8.246;2023-04-22T12:39:45;21.70;99.90
10702;DHT22;5402;50.004;8.246;2023-04-22T12:42:12;21.70;99.90
10702;DHT22;5402;50.004;8.246;2023-04-22T12:44:40;21.70;99.90
10702;DHT22;5402;50.004;8.246;2023-04-22T12:47:07;22.00;99.90
10702;DHT22;5402;50.004;8.246;2023-04-22T12:49:35;22.20;99.90
10702;DHT22;5402;50.004;8.246;2023-04-22T12:52:04;22.50;99.90
10702;DHT22;5402;50.004;8.246;2023-04-22T12:54:31;22.50;99.90
10702;DHT22;5402;50.004;8.246;2023-04-22T12:56:57;22.40;99.90
10702;DHT22;5402;50.004;8.246;2023-04-22T12:59:24;22.30;99.90
10702;DHT22;5402;50.004;8.246;2023-04-22T13:01:52;22.10;99.90
10702;DHT22;5402;50.004;8.246;2023-04-22T13:04:32;21.70;99.60
10702;DHT22;5402;50.004;8.246;2023-04-22T13:07:14;21.50;99.80
10702;DHT22;5402;50.004;8.246;2023-04-22T13:09:41;21.30;99.60
10702;DHT22;5402;50.004;8.246;2023-04-22T13:12:08;21.10;97.70
10702;DHT22;5402;50.004;8.246;2023-04-22T13:14:35;20.90;99.90
10702;DHT22;5402;50.004;8.246;2023-04-22T13:17:03;20.80;99.40
10702;DHT22;5402;50.004;8.246;2023-04-22T13:19:30;20.70;98.80
10702;DHT22;5402;50.004;8.246;2023-04-22T13:21:59;20.40;98.30
10702;DHT22;5402;50.004;8.246;2023-04-22T13:24:26;20.30;99.20
10702;DHT22;5402;50.004;8.246;2023-04-22T13:26:53;20.10;98.90
10702;DHT22;5402;50.004;8.246;2023-04-22T13:29:20;20.00;98.80
10702;DHT22;5402;50.004;8.246;2023-04-22T13:31:47;19.90;99.40
10702;DHT22;5402;50.004;8.246;2023-04-22T13:34:15;19.80;99.70
10702;DHT22;5402;50.004;8.246;2023-04-22T13:36:41;19.70;99.40
10702;DHT22;5402;50.004;8.246;2023-04-22T13:39:08;19.60;99.30
10702;DHT22;5402;50.004;8.246;2023-04-22T13:41:35;19.50;99.70
10702;DHT22;5402;50.004;8.246;2023-04-22T13:44:02;19.40;99.90
10702;DHT22;5402;50.004;8.246;2023-04-22T13:46:29;19.40;99.90
10702;DHT22;5402;50.004;8.246;2023-04-22T13:48:55;19.40;99.90
10702;DHT22;5402;50.004;8.246;2023-04-22T13:51:24;19.30;99.90
10702;DHT22;5402;50.004;8.246;2023-04-22T13:53:51;19.20;99.90
10702;DHT22;5402;50.004;8.246;2023-04-22T13:56:17;19.10;99.90
10702;DHT22;5402;50.004;8.246;2023-04-22T13:58:44;19.00;99.90
10702;DHT22;5402;50.004;8.246;2023-04-22T14:01:12;19.00;99.90
10702;DHT22;5402;50.004;8.246;2023-04-22T14:03:38;18.90;99.90
10702;DHT22;5402;50.004;8.246;2023-04-22T14:06:05;18.90;99.90
10702;DHT22;5402;50.004;8.246;2023-04-22T14:08:33;18.70;99.90
10702;DHT22;5402;50.004;8.246;2023-04-22T14:11:00;18.70;99.90
10702;DHT22;5402;50.004;8.246;2023-04-22T14:13:28;18.50;99.90
10702;DHT22;5402;50.004;8.246;2023-04-22T14:15:55;18.60;99.90
10702;DHT22;5402;50.004;8.246;2023-04-22T14:18:22;18.40;99.90
10702;DHT22;5402;50.004;8.246;2023-04-22T14:20:49;18.40;99.90
10702;DHT22;5402;50.004;8.246;2023-04-22T14:23:16;18.40;99.90
10702;DHT22;5402;50.004;8.246;2023-04-22T14:25:45;18.50;99.90
10702;DHT22;5402;50.004;8.246;2023-04-22T14:28:13;18.40;99.90
10702;DHT22;5402;50.004;8.246;2023-04-22T14:30:40;18.50;99.90
10702;DHT22;5402;50.004;8.246;2023-04-22T14:33:07;18.40;99.90
10702;DHT22;5402;50.004;8.246;2023-04-22T14:35:34;18.40;99.90
10702;DHT22;5402;50.004;8.246;2023-04-22T14:38:01;18.40;99.90
10702;DHT22;5402;50.004;8.246;2023-04-22T14:40:28;18.40;99.90
10702;DHT22;5402;50.004;8.246;2023-04-22T14:42:58;18.40;99.90
10702;DHT22;5402;50.004;8.246;2023-04-22T14:45:27;18.50;99.90
10702;DHT22;5402;50.004;8.246;2023-04-22T14:47:55;18.50;99.90
10702;DHT22;5402;50.004;8.246;2023-04-22T14:50:22;18.50;99.90
10702;DHT22;5402;50.004;8.246;2023-04-22T14:52:50;18.50;99.90
10702;DHT22;5402;50.004;8.246;2023-04-22T14:55:17;18.50;99.90
10702;DHT22;5402;50.004;8.246;2023-04-22T14:57:43;18.60;99.90
10702;DHT22;5402;50.004;8.246;2023-04-22T15:00:12;18.50;99.90
10702;DHT22;5402;50.004;8.246;2023-04-22T15:02:39;18.50;99.90
10702;DHT22;5402;50.004;8.246;2023-04-22T15:05:07;18.50;99.90
10702;DHT22;5402;50.004;8.246;2023-04-22T15:07:33;18.40;99.90
10702;DHT22;5402;50.004;8.246;2023-04-22T15:10:00;18.40;99.90
10702;DHT22;5402;50.004;8.246;2023-04-22T15:12:27;18.60;99.90
10702;DHT22;5402;50.004;8.246;2023-04-22T15:14:54;18.70;99.90
10702;DHT22;5402;50.004;8.246;2023-04-22T15:17:22;18.80;99.90
10702;DHT22;5402;50.004;8.246;2023-04-22T15:19:49;18.90;99.90
10702;DHT22;5402;50.004;8.246;2023-04-22T15:22:18;18.90;99.90
10702;DHT22;5402;50.004;8.246;2023-04-22T15:24:45;18.90;99.90
10702;DHT22;5402;50.004;8.246;2023-04-22T15:27:12;18.70;99.90
10702;DHT22;5402;50.004;8.246;2023-04-22T15:29:38;18.60;99.90
10702;DHT22;5402;50.004;8.246;2023-04-22T15:32:09;18.50;99.90
10702;DHT22;5402;50.004;8.246;2023-04-22T15:34:37;18.50;99.90
10702;DHT22;5402;50.004;8.246;2023-04-22T15:37:04;18.50;99.90
10702;DHT22;5402;50.004;8.246;2023-04-22T15:39:31;18.50;99.90
10702;DHT22;5402;50.004;8.246;2023-04-22T15:41:57;18.30;99.90
10702;DHT22;5402;50.004;8.246;2023-04-22T15:44:24;18.30;99.90
10702;DHT22;5402;50.004;8.246;2023-04-22T15:46:51;18.30;99.90
10702;DHT22;5402;50.004;8.246;2023-04-22T15:49:18;18.20;99.90
10702;DHT22;5402;50.004;8.246;2023-04-22T15:51:46;18.20;99.90
10702;DHT22;5402;50.004;8.246;2023-04-22T15:54:13;18.10;99.90